Time;durP1;ratioP1;P1;durP2;ratioP2;P2;SDS_P1;SDS_P2;PMS_P1;PMS_P2;Temp;Humidity;BMP_temperature;BMP_pressure;BME280_temperature;BME280_humidity;BME280_pressure;Samples;Min_cycle;Max_cycle;Signal;HPM_P1;HPM_P2
2021/10/31 00:01:05;;;;;;;;;174.25;158.25;;;;;7.11;67.68;102757.19;4936403;29;8846;-69
2021/10/31 00:04:01;;;;;;;;;183.00;169.00;;;;;7.15;67.52;102752.84;4936195;29;8843;-69
2021/10/31 00:06:56;;;;;;;;;226.00;194.25;;;;;7.03;67.94;102756.81;4936203;29;8846;-69
2021/10/31 00:09:52;;;;;;;;;209.50;188.50;;;;;7.02;67.87;102752.41;4936328;29;8851;-69
2021/10/31 00:12:48;;;;;;;;;205.25;180.75;;;;;7.07;68.26;102744.22;4936479;29;8859;-69
2021/10/31 00:15:43;;;;;;;;;166.50;149.50;;;;;7.07;67.83;102747.81;4923695;29;8839;-69
2021/10/31 00:18:39;;;;;;;;;147.75;131.00;;;;;7.09;68.19;102744.81;4936355;29;8858;-70
2021/10/31 00:21:35;;;;;;;;;155.25;140.25;;;;;7.08;68.31;102751.41;4935932;29;9609;-69
2021/10/31 00:24:30;;;;;;;;;130.00;110.00;;;;;7.12;68.15;102749.78;4935780;29;8863;-70
2021/10/31 00:27:26;;;;;;;;;114.33;101.00;;;;;7.12;68.15;102749.78;4936033;29;8842;-69
2021/10/31 00:30:22;;;;;;;;;107.33;96.67;;;;;7.13;67.94;102745.94;4936172;29;8870;-69
2021/10/31 00:33:18;;;;;;;;;100.67;93.67;;;;;7.05;68.21;102740.88;4935832;29;8880;-69
2021/10/31 00:36:14;;;;;;;;;100.00;83.33;;;;;6.96;68.36;102735.00;4923035;29;8933;-71
2021/10/31 00:39:09;;;;;;;;;98.00;86.33;;;;;6.94;68.59;102734.44;4935843;29;8954;-68
2021/10/31 00:41:37;;;;;;;;;99.67;81.00;;;;;7.04;68.24;102734.56;4919925;29;8885;-69
2021/10/31 00:44:33;;;;;;;;;98.00;86.33;;;;;6.86;68.60;102732.16;4935604;29;8961;-69
2021/10/31 00:47:29;;;;;;;;;100.33;89.33;;;;;6.95;68.87;102742.44;4935585;29;8822;-69
2021/10/31 00:50:24;;;;;;;;;101.33;93.67;;;;;6.88;68.29;102739.03;4935651;29;8834;-69
2021/10/31 00:53:20;;;;;;;;;107.50;99.75;;;;;6.84;68.68;102729.66;4922827;29;8839;-69
2021/10/31 00:56:16;;;;;;;;;113.67;105.00;;;;;6.86;68.37;102743.16;4935511;29;8846;-70
2021/10/31 00:59:11;;;;;;;;;125.75;108.75;;;;;6.83;68.42;102739.00;4935447;29;8835;-69
2021/10/31 01:02:12;;;;;;;;;137.75;125.50;;;;;6.71;68.84;102735.53;4922750;29;8862;-69
2021/10/31 01:05:14;;;;;;;;;145.50;131.50;;;;;6.77;68.48;102739.19;4935316;29;8858;-70
2021/10/31 01:08:16;;;;;;;;;168.00;148.25;;;;;6.58;68.81;102725.72;4935478;29;8842;-69
2021/10/31 01:11:31;;;;;;;;;157.00;141.75;;;;;6.54;68.79;102726.50;4934516;29;8823;-69
2021/10/31 01:14:46;;;;;;;;;150.50;138.50;;;;;6.47;67.75;102725.84;4935329;29;8858;-69
2021/10/31 01:18:00;;;;;;;;;167.75;145.50;;;;;6.39;68.78;102727.94;4935231;29;9683;-69
2021/10/31 01:21:27;;;;;;;;;148.50;131.25;;;;;6.40;68.86;102717.78;4935075;29;9596;-69
2021/10/31 01:24:17;;;;;;;;;145.75;131.25;;;;;6.09;69.85;102716.50;4917042;29;9559;-69
2021/10/31 01:27:30;;;;;;;;;151.25;132.00;;;;;6.31;69.33;102713.81;4916800;29;8845;-68
2021/10/31 01:30:05;;;;;;;;;143.75;120.00;;;;;6.15;69.71;102709.19;4916951;29;8971;-69
2021/10/31 01:33:31;;;;;;;;;125.75;120.50;;;;;6.35;68.59;102712.22;4903363;29;8877;-69
2021/10/31 01:36:41;;;;;;;;;130.00;115.75;;;;;6.32;67.58;102716.31;4916005;29;8841;-69
2021/10/31 01:39:37;;;;;;;;;117.75;109.25;;;;;6.21;67.85;102713.66;4903395;29;8863;-69
2021/10/31 01:42:45;;;;;;;;;117.00;111.50;;;;;6.24;68.06;102718.66;4915898;29;8848;-69
2021/10/31 01:45:55;;;;;;;;;149.75;139.75;;;;;5.99;68.46;102710.88;4916898;29;8865;-69
2021/10/31 01:49:08;;;;;;;;;143.25;138.25;;;;;5.99;68.37;102717.19;4922219;29;8847;-69
2021/10/31 01:52:11;;;;;;;;;136.50;131.25;;;;;5.83;68.44;102712.50;4941074;29;8965;-69
2021/10/31 01:55:13;;;;;;;;;152.00;141.25;;;;;5.79;68.81;102712.16;4940753;29;8861;-69
2021/10/31 01:58:10;;;;;;;;;143.75;134.00;;;;;5.69;68.97;102714.75;4941381;29;9581;-69
2021/10/31 02:01:08;;;;;;;;;142.00;130.25;;;;;5.47;69.87;102719.31;4941147;29;8835;-69
2021/10/31 02:04:08;;;;;;;;;161.75;142.50;;;;;5.41;70.58;102714.78;4941128;29;9692;-69
2021/10/31 02:07:06;;;;;;;;;159.50;142.50;;;;;5.52;70.28;102713.88;4940914;29;8833;-69
2021/10/31 02:10:02;;;;;;;;;153.50;135.25;;;;;5.62;69.81;102711.31;4928343;29;8846;-69
2021/10/31 02:13:01;;;;;;;;;166.25;151.75;;;;;5.64;70.35;102708.31;4940923;29;8873;-69
2021/10/31 02:15:57;;;;;;;;;173.00;153.25;;;;;5.78;70.70;102699.50;4940595;29;8906;-70
2021/10/31 02:19:01;;;;;;;;;180.75;167.50;;;;;5.94;70.90;102703.38;4940922;29;8849;-70
2021/10/31 02:22:01;;;;;;;;;157.75;140.50;;;;;5.93;71.33;102701.72;4940939;29;8818;-69
2021/10/31 02:24:59;;;;;;;;;138.00;125.25;;;;;5.93;72.01;102693.47;4940743;29;8851;-69
2021/10/31 02:27:56;;;;;;;;;128.50;115.25;;;;;6.10;71.50;102690.69;4940628;29;8882;-70
2021/10/31 02:30:51;;;;;;;;;151.25;134.50;;;;;6.13;71.08;102687.44;4941057;29;9604;-69
2021/10/31 02:33:47;;;;;;;;;95.00;68.75;;;;;6.08;71.64;102687.38;4940105;29;8843;-69
2021/10/31 02:36:43;;;;;;;;;174.25;155.25;;;;;6.15;71.74;102682.53;4940673;29;8823;-69
2021/10/31 02:39:39;;;;;;;;;160.75;151.25;;;;;6.24;71.53;102675.53;4940639;29;8885;-69
2021/10/31 02:42:34;;;;;;;;;167.00;151.25;;;;;6.09;71.70;102689.03;4940827;29;8932;-69
2021/10/31 02:45:30;;;;;;;;;170.00;147.00;;;;;6.17;71.00;102679.53;4940675;29;9687;-71
2021/10/31 02:48:26;;;;;;;;;161.25;143.75;;;;;6.19;71.51;102669.94;4940613;29;8819;-69
2021/10/31 02:51:39;;;;;;;;;165.75;146.25;;;;;6.06;71.97;102673.91;4940201;29;8863;-69
2021/10/31 02:54:23;;;;;;;;;144.50;123.00;;;;;6.05;72.38;102677.72;4941487;29;8949;-69
2021/10/31 02:57:44;;;;;;;;;161.00;144.00;;;;;5.98;72.33;102671.59;4939824;29;8985;-69
2021/10/31 03:00:40;;;;;;;;;171.75;158.25;;;;;5.99;72.29;102676.00;4924880;29;8853;-69
2021/10/31 03:03:36;;;;;;;;;152.50;139.25;;;;;6.02;72.25;102666.41;4937579;29;8885;-69
2021/10/31 03:06:32;;;;;;;;;176.25;162.00;;;;;6.10;72.25;102669.53;4924729;29;8838;-69
2021/10/31 03:09:28;;;;;;;;;167.00;155.50;;;;;6.03;72.40;102671.63;4937342;29;8923;-69
2021/10/31 03:12:24;;;;;;;;;189.25;170.25;;;;;6.07;72.13;102666.50;4937556;29;8835;-69
2021/10/31 03:15:20;;;;;;;;;194.25;165.75;;;;;5.94;72.77;102659.44;4937282;29;8876;-69
2021/10/31 03:18:16;;;;;;;;;163.00;147.25;;;;;6.02;72.28;102661.75;4924676;29;8835;-69
2021/10/31 03:21:11;;;;;;;;;150.00;135.00;;;;;5.89;72.64;102662.06;4937794;29;9029;-70
2021/10/31 03:24:07;;;;;;;;;148.00;125.25;;;;;5.76;73.06;102651.44;4937155;29;8827;-69
2021/10/31 03:27:03;;;;;;;;;152.25;121.50;;;;;5.75;72.72;102660.72;4936492;29;8854;-69
2021/10/31 03:29:59;;;;;;;;;187.75;148.75;;;;;5.77;72.51;102656.66;4936941;29;8830;-69
2021/10/31 03:32:54;;;;;;;;;214.00;176.25;;;;;5.65;73.21;102660.56;4924264;29;8881;-70
2021/10/31 03:35:51;;;;;;;;;194.75;157.00;;;;;5.61;73.39;102657.50;4936836;29;8834;-69
2021/10/31 03:38:46;;;;;;;;;174.50;162.50;;;;;5.63;73.05;102655.34;4936939;29;8854;-69
2021/10/31 03:41:28;;;;;;;;;144.75;128.25;;;;;5.61;73.15;102654.75;4937064;29;8949;-70
2021/10/31 03:44:24;;;;;;;;;134.75;129.00;;;;;5.52;73.76;102648.88;4936731;29;8956;-70
2021/10/31 03:47:22;;;;;;;;;149.50;139.00;;;;;5.47;73.79;102657.00;4924047;29;8870;-69
2021/10/31 03:50:23;;;;;;;;;170.00;154.75;;;;;5.45;74.14;102650.94;4923808;29;8862;-69
2021/10/31 03:53:18;;;;;;;;;187.25;166.25;;;;;5.41;74.14;102649.75;4936764;29;8889;-70
2021/10/31 03:56:14;;;;;;;;;180.50;159.00;;;;;5.33;74.21;102655.66;4923872;29;8859;-69
2021/10/31 03:59:10;;;;;;;;;118.50;101.50;;;;;5.34;74.41;102640.03;4933540;29;8842;-69
2021/10/31 04:02:02;;;;;;;;;185.75;166.50;;;;;5.28;74.79;102639.09;4934243;29;8863;-68
2021/10/31 04:04:57;;;;;;;;;167.75;144.50;;;;;5.37;74.16;102632.13;4935031;29;8940;-68
2021/10/31 04:07:55;;;;;;;;;143.50;131.25;;;;;5.29;74.59;102632.53;4934890;29;10077;-68
2021/10/31 04:10:50;;;;;;;;;101.25;90.75;;;;;5.25;74.47;102629.47;4921561;29;8965;-68
2021/10/31 04:13:46;;;;;;;;;75.00;60.33;;;;;5.16;74.94;102633.69;4922122;29;8862;-68
2021/10/31 04:16:42;;;;;;;;;78.00;60.33;;;;;5.01;75.27;102634.25;4922439;29;8877;-69
2021/10/31 04:19:38;;;;;;;;;80.33;63.00;;;;;4.99;75.65;102624.59;4934632;29;8865;-67
2021/10/31 04:22:34;;;;;;;;;66.00;55.00;;;;;5.08;74.94;102620.38;4934411;29;8854;-68
2021/10/31 04:25:30;;;;;;;;;81.00;65.00;;;;;5.03;75.42;102634.00;4915628;29;8844;-70
2021/10/31 04:28:25;;;;;;;;;81.00;64.00;;;;;5.05;75.35;102625.50;4915722;29;8841;-70
2021/10/31 04:31:21;;;;;;;;;99.67;80.33;;;;;4.95;75.70;102626.16;4896736;29;8869;-69
2021/10/31 04:34:17;;;;;;;;;98.33;83.67;;;;;5.09;75.20;102621.22;4896636;29;8869;-70
2021/10/31 04:37:12;;;;;;;;;119.25;100.25;;;;;5.00;75.22;102623.53;4901195;29;8877;-70
2021/10/31 04:40:11;;;;;;;;;130.50;110.75;;;;;4.79;75.90;102624.22;4915379;29;8894;-70
2021/10/31 04:43:11;;;;;;;;;127.00;115.00;;;;;4.98;74.87;102623.78;4915142;29;8859;-70
2021/10/31 04:46:07;;;;;;;;;149.75;127.50;;;;;5.06;74.86;102622.56;4915914;29;8874;-70
2021/10/31 04:49:03;;;;;;;;;183.75;143.25;;;;;5.08;74.69;102634.09;4915094;29;8870;-69
2021/10/31 04:51:59;;;;;;;;;175.75;154.25;;;;;5.00;74.96;102632.59;4915419;29;8882;-70
2021/10/31 04:54:54;;;;;;;;;165.00;144.25;;;;;4.96;74.90;102627.81;4902415;29;9671;-70
2021/10/31 04:57:50;;;;;;;;;160.50;142.50;;;;;5.03;74.80;102640.31;4902463;29;8866;-69
2021/10/31 05:00:45;;;;;;;;;153.00;136.50;;;;;5.07;74.67;102639.84;4914304;29;8851;-69
2021/10/31 05:03:41;;;;;;;;;165.75;139.75;;;;;5.07;74.54;102640.66;4914908;29;8905;-69
2021/10/31 05:06:36;;;;;;;;;146.25;135.00;;;;;5.15;74.61;102629.28;4902188;29;8878;-69
2021/10/31 05:09:32;;;;;;;;;124.75;113.00;;;;;5.26;73.80;102628.38;4914039;29;8870;-69
2021/10/31 05:12:28;;;;;;;;;116.75;110.25;;;;;5.09;74.50;102633.00;4902241;29;8863;-69
2021/10/31 05:15:24;;;;;;;;;116.25;97.25;;;;;5.23;74.20;102628.88;4914732;29;8986;-70
2021/10/31 05:18:20;;;;;;;;;95.67;76.00;;;;;5.38;74.11;102627.47;4914348;29;8878;-69
2021/10/31 05:21:15;;;;;;;;;78.00;61.33;;;;;5.48;73.51;102638.63;4912806;29;8863;-69
2021/10/31 05:24:11;;;;;;;;;75.33;62.33;;;;;5.44;73.57;102630.03;4903854;29;8868;-69
2021/10/31 05:26:38;;;;;;;;;84.33;67.67;;;;;5.69;72.98;102631.56;4917317;29;8870;-69
2021/10/31 05:29:06;;;;;;;;;87.67;68.33;;;;;5.65;73.51;102633.94;4916195;29;8982;-70
2021/10/31 05:32:02;;;;;;;;;86.00;68.33;;;;;5.68;73.53;102632.63;4916488;29;8861;-70
2021/10/31 05:34:57;;;;;;;;;82.33;66.67;;;;;5.94;73.00;102628.38;4897478;29;8899;-70
2021/10/31 05:37:58;;;;;;;;;86.67;64.33;;;;;5.77;73.13;102622.88;4897697;29;9665;-70
2021/10/31 05:40:53;;;;;;;;;79.00;64.00;;;;;6.07;72.14;102614.28;4896120;29;8880;-71
2021/10/31 05:43:21;;;;;;;;;60.67;52.00;;;;;6.14;72.11;102612.19;4896480;29;8955;-71
2021/10/31 05:46:17;;;;;;;;;63.00;53.00;;;;;6.13;72.31;102613.25;4897447;29;8871;-71
2021/10/31 05:49:13;;;;;;;;;58.33;50.67;;;;;6.33;72.03;102618.19;4902115;29;11687;-71
2021/10/31 05:52:08;;;;;;;;;64.33;55.33;;;;;6.52;71.65;102611.31;4916131;29;11693;-71
2021/10/31 05:55:06;;;;;;;;;63.00;52.67;;;;;6.62;71.25;102610.59;4916135;29;11688;-70
2021/10/31 05:58:01;;;;;;;;;65.50;55.00;;;;;6.61;71.17;102612.50;4915499;29;11657;-70
2021/10/31 06:00:57;;;;;;;;;68.67;57.33;;;;;6.89;70.13;102616.09;4914467;29;11732;-69
2021/10/31 06:03:53;;;;;;;;;74.00;60.00;;;;;6.66;70.43;102620.78;4916260;29;8850;-69
2021/10/31 06:06:48;;;;;;;;;73.33;60.00;;;;;7.07;69.44;102623.16;4923644;29;8969;-70
2021/10/31 06:09:44;;;;;;;;;77.33;62.00;;;;;7.10;70.16;102617.13;4913047;29;8893;-71
2021/10/31 06:12:45;;;;;;;;;79.67;62.33;;;;;7.58;72.60;102618.09;4916339;29;8853;-70
2021/10/31 06:15:23;;;;;;;;;78.33;62.67;;;;;8.03;71.65;102621.16;4915389;29;8899;-71
2021/10/31 06:18:19;;;;;;;;;85.00;67.33;;;;;8.17;70.37;102624.25;4914772;29;11698;-70
2021/10/31 06:21:15;;;;;;;;;87.00;65.67;;;;;8.15;70.10;102614.59;4897835;29;8856;-70
2021/10/31 06:24:10;;;;;;;;;86.33;65.67;;;;;8.77;73.78;102617.38;4896995;29;8887;-70
2021/10/31 06:27:07;;;;;;;;;83.00;64.33;;;;;9.19;74.22;102611.63;4914547;29;8849;-70
2021/10/31 06:30:04;;;;;;;;;73.00;58.67;;;;;9.54;69.95;102614.69;4927230;29;8867;-69
2021/10/31 06:32:59;;;;;;;;;75.00;61.50;;;;;9.61;68.18;102616.06;4923231;29;11693;-70
2021/10/31 06:35:55;;;;;;;;;65.25;53.50;;;;;9.34;66.05;102623.78;4937670;29;11534;-70
2021/10/31 06:38:52;;;;;;;;;69.75;58.00;;;;;9.75;65.94;102617.16;4937889;29;11556;-70
2021/10/31 06:41:19;;;;;;;;;69.25;55.00;;;;;9.85;64.49;102621.81;4935924;29;12298;-69
2021/10/31 06:43:48;;;;;;;;;64.00;53.00;;;;;9.90;62.56;102621.81;4937747;29;11583;-70
2021/10/31 06:46:44;;;;;;;;;71.25;57.25;;;;;9.75;61.98;102614.38;4935623;29;11676;-71
2021/10/31 06:49:41;;;;;;;;;61.00;51.25;;;;;9.88;61.74;102612.97;4921720;29;11764;-71
2021/10/31 06:52:37;;;;;;;;;69.75;55.50;;;;;9.84;61.88;102622.13;4924429;29;11557;-72
2021/10/31 06:55:08;;;;;;;;;69.50;54.50;;;;;9.92;62.06;102616.00;4937295;29;11553;-71
2021/10/31 06:58:04;;;;;;;;;73.50;56.75;;;;;10.08;61.83;102611.28;4937305;29;11542;-71
2021/10/31 07:00:59;;;;;;;;;69.25;56.75;;;;;10.34;60.99;102614.81;4937503;29;11539;-72
2021/10/31 07:03:55;;;;;;;;;80.25;61.50;;;;;10.58;60.67;102624.94;4918205;29;11569;-71
2021/10/31 07:06:50;;;;;;;;;66.75;54.25;;;;;10.77;60.10;102616.81;4927379;29;11568;-71
2021/10/31 07:09:46;;;;;;;;;67.75;54.50;;;;;10.85;59.95;102621.75;4937001;29;11607;-71
2021/10/31 07:12:28;;;;;;;;;60.00;48.75;;;;;11.11;59.28;102618.81;4922668;29;11655;-70
2021/10/31 07:15:24;;;;;;;;;55.75;46.50;;;;;11.38;59.04;102618.34;4924049;29;12298;-71
2021/10/31 07:18:19;;;;;;;;;46.25;41.50;;;;;11.54;58.36;102613.50;4936652;29;11577;-72
2021/10/31 07:21:15;;;;;;;;;36.00;33.75;;;;;11.83;57.68;102606.03;4924017;29;11508;-72
2021/10/31 07:24:10;;;;;;;;;33.00;33.00;;;;;11.84;57.38;102604.91;4936254;29;11519;-71
2021/10/31 07:27:07;;;;;;;;;33.75;33.00;;;;;12.17;57.13;102600.38;4923050;29;11303;-71
2021/10/31 07:29:35;;;;;;;;;25.75;25.75;;;;;12.35;56.33;102598.78;4936866;29;11338;-72
2021/10/31 07:32:30;;;;;;;;;20.50;20.50;;;;;12.27;56.19;102595.81;4936422;29;11105;-71
2021/10/31 07:35:28;;;;;;;;;26.00;26.00;;;;;12.69;55.54;102593.06;4936273;29;10800;-71
2021/10/31 07:38:23;;;;;;;;;21.50;20.25;;;;;12.65;55.07;102592.03;4935837;29;10756;-71
2021/10/31 07:41:20;;;;;;;;;16.50;16.50;;;;;12.92;54.58;102591.34;4922914;29;10521;-72
2021/10/31 07:44:16;;;;;;;;;18.25;18.25;;;;;12.71;54.70;102590.81;4933198;29;10498;-71
2021/10/31 07:47:12;;;;;;;;;19.25;19.25;;;;;12.80;54.33;102586.25;4936430;29;10426;-71
2021/10/31 07:49:50;;;;;;;;;14.75;14.00;;;;;13.02;53.88;102585.63;4921285;29;10471;-71
2021/10/31 07:52:46;;;;;;;;;17.25;17.25;;;;;13.41;52.71;102590.00;4935165;29;10430;-70
2021/10/31 07:55:47;;;;;;;;;34.50;26.75;;;;;13.25;52.86;102592.22;4934213;29;10349;-71
2021/10/31 07:58:44;;;;;;;;;18.50;16.75;;;;;13.26;52.51;102595.81;4935382;29;10439;-71
2021/10/31 08:01:40;;;;;;;;;15.50;15.50;;;;;12.97;53.14;102582.13;4936125;29;10204;-72
2021/10/31 08:04:35;;;;;;;;;15.75;15.75;;;;;13.13;52.95;102579.91;4935943;29;10186;-71
2021/10/31 08:07:33;;;;;;;;;16.50;16.50;;;;;13.42;52.26;102571.38;4923491;29;10167;-71
2021/10/31 08:10:29;;;;;;;;;12.25;12.25;;;;;13.51;51.71;102580.69;4923424;29;10135;-72
2021/10/31 08:13:26;;;;;;;;;19.50;18.25;;;;;13.76;51.37;102573.84;4935986;29;10858;-72
2021/10/31 08:16:25;;;;;;;;;14.00;14.00;;;;;13.90;51.27;102569.94;4934405;29;9776;-72
2021/10/31 08:19:24;;;;;;;;;31.50;31.50;;;;;13.81;50.88;102569.00;4935714;29;10027;-72
2021/10/31 08:22:20;;;;;;;;;14.75;14.50;;;;;14.09;50.72;102571.78;4935234;29;10468;-72
2021/10/31 08:25:02;;;;;;;;;12.75;12.75;;;;;14.46;49.90;102562.41;4920454;29;9991;-71
2021/10/31 08:27:31;;;;;;;;;13.75;13.75;;;;;14.75;49.29;102562.03;4919770;29;9780;-72
2021/10/31 08:29:59;;;;;;;;;15.25;15.25;;;;;14.48;49.63;102562.91;4936498;29;9672;-72
2021/10/31 08:32:28;;;;;;;;;15.50;15.50;;;;;14.79;49.20;102553.88;4935876;29;9772;-70
2021/10/31 08:34:57;;;;;;;;;12.00;12.00;;;;;14.93;48.63;102546.28;4917736;29;9747;-73
2021/10/31 08:37:33;;;;;;;;;13.75;13.75;;;;;15.39;47.79;102545.97;4924569;29;10208;-71
2021/10/31 08:40:28;;;;;;;;;11.67;11.67;;;;;15.22;48.27;102546.69;4935250;29;9574;-71
2021/10/31 08:42:56;;;;;;;;;17.00;17.00;;;;;15.03;48.30;102534.91;4936720;29;9370;-71
2021/10/31 08:45:41;;;;;;;;;12.67;12.67;;;;;14.88;48.66;102524.97;4918601;29;9659;-71
2021/10/31 08:48:38;;;;;;;;;14.33;14.33;;;;;15.16;48.17;102528.44;4922112;29;9247;-71
2021/10/31 08:51:34;;;;;;;;;16.50;15.75;;;;;15.44;47.73;102514.34;4923364;29;9483;-71
2021/10/31 08:54:02;;;;;;;;;14.00;13.33;;;;;15.49;47.46;102503.06;4936260;29;9470;-72
2021/10/31 08:56:58;;;;;;;;;17.25;17.25;;;;;16.18;46.53;102496.91;4934602;29;9375;-69
2021/10/31 08:59:26;;;;;;;;;18.00;17.00;;;;;16.31;46.07;102493.97;4919854;29;10324;-71
2021/10/31 09:02:23;;;;;;;;;19.50;18.50;;;;;16.40;45.88;102497.59;4922575;29;9419;-71
2021/10/31 09:05:05;;;;;;;;;25.33;25.33;;;;;16.63;45.36;102491.88;4935682;29;9501;-70
2021/10/31 09:07:34;;;;;;;;;30.25;29.25;;;;;16.73;44.95;102485.19;4936235;29;9469;-69
2021/10/31 09:10:30;;;;;;;;;19.67;19.67;;;;;17.36;44.59;102480.78;4935347;29;9845;-71
2021/10/31 09:13:12;;;;;;;;;18.33;17.67;;;;;17.17;44.06;102487.56;4935422;29;9259;-70
2021/10/31 09:16:07;;;;;;;;;26.00;22.00;;;;;17.28;44.05;102471.25;4934968;29;9275;-70
2021/10/31 09:19:03;;;;;;;;;18.67;17.67;;;;;17.34;43.50;102467.13;4935309;29;9094;-70
2021/10/31 09:21:59;;;;;;;;;19.25;17.75;;;;;17.45;43.45;102482.38;4935327;29;9081;-72
2021/10/31 09:24:55;;;;;;;;;16.50;16.50;;;;;17.18;43.53;102468.84;4934933;29;8850;-71
2021/10/31 09:27:36;;;;;;;;;16.25;16.25;;;;;17.28;43.66;102470.44;4935703;29;8891;-70
2021/10/31 09:30:06;;;;;;;;;35.75;34.00;;;;;17.77;42.96;102464.16;4919305;29;8834;-70
2021/10/31 09:32:38;;;;;;;;;47.25;40.75;;;;;17.84;42.20;102466.44;4936169;29;9899;-71
2021/10/31 09:35:06;;;;;;;;;26.75;24.75;;;;;17.76;42.45;102464.50;4918380;29;9566;-71
2021/10/31 09:37:34;;;;;;;;;27.33;25.67;;;;;17.84;42.34;102460.84;4919151;29;8865;-71
2021/10/31 09:40:33;;;;;;;;;37.33;34.33;;;;;18.29;41.37;102460.22;4935048;29;9181;-73
2021/10/31 09:43:32;;;;;;;;;18.00;17.75;;;;;18.29;41.49;102454.63;4922018;29;9189;-71
2021/10/31 09:46:28;;;;;;;;;21.25;20.00;;;;;18.34;41.54;102457.25;4934883;29;8871;-70
2021/10/31 09:49:24;;;;;;;;;20.00;18.75;;;;;18.12;41.73;102461.19;4934968;29;8946;-69
2021/10/31 09:52:23;;;;;;;;;19.50;19.50;;;;;18.27;41.12;102446.56;4934810;29;8870;-71
2021/10/31 09:55:19;;;;;;;;;15.00;15.00;;;;;18.47;40.78;102444.09;4934819;29;8834;-71
2021/10/31 09:58:37;;;;;;;;;12.00;12.00;;;;;18.41;41.39;102440.72;4934608;29;8969;-72
2021/10/31 10:02:01;;;;;;;;;14.00;14.00;;;;;18.26;41.08;102435.72;4922102;29;8962;-71
2021/10/31 10:04:50;;;;;;;;;14.25;14.25;;;;;18.30;41.30;102419.84;4935110;29;8908;-72
2021/10/31 10:07:47;;;;;;;;;15.75;15.75;;;;;18.59;40.45;102425.38;4924190;29;8872;-72
2021/10/31 10:10:52;;;;;;;;;14.50;14.50;;;;;18.74;39.88;102414.72;4938418;29;8925;-71
2021/10/31 10:13:34;;;;;;;;;15.00;15.00;;;;;18.96;40.09;102410.69;4939745;29;8859;-72
2021/10/31 10:16:21;;;;;;;;;13.50;13.50;;;;;19.01;39.70;102407.66;4939215;29;8973;-71
2021/10/31 10:19:33;;;;;;;;;16.25;15.25;;;;;18.68;40.40;102404.88;4925647;29;8834;-70
2021/10/31 10:22:29;;;;;;;;;13.25;13.25;;;;;18.74;40.21;102397.91;4938462;29;9706;-71
2021/10/31 10:25:39;;;;;;;;;17.50;16.50;;;;;19.06;40.12;102394.25;4937985;29;8842;-71
2021/10/31 10:28:35;;;;;;;;;14.25;14.25;;;;;19.36;39.52;102388.44;4938264;29;8854;-71
2021/10/31 10:31:31;;;;;;;;;14.00;13.00;;;;;19.30;39.60;102385.03;4925335;29;8835;-71
2021/10/31 10:34:42;;;;;;;;;12.75;12.75;;;;;19.03;40.18;102369.72;4925281;29;8874;-72
2021/10/31 10:37:37;;;;;;;;;14.25;13.25;;;;;19.33;39.67;102364.72;4938308;29;8880;-71
2021/10/31 10:40:33;;;;;;;;;16.50;16.25;;;;;18.95;39.84;102365.03;4937882;29;9672;-71
2021/10/31 10:43:30;;;;;;;;;18.00;18.00;;;;;19.08;39.73;102358.25;4925127;29;9024;-70
2021/10/31 10:46:30;;;;;;;;;15.00;15.00;;;;;19.41;38.77;102354.53;4925359;29;8839;-70
2021/10/31 10:49:28;;;;;;;;;16.50;16.50;;;;;19.78;38.07;102360.94;4926033;29;9619;-71
2021/10/31 10:52:30;;;;;;;;;16.75;16.75;;;;;20.08;37.89;102350.22;4924912;29;8847;-70
2021/10/31 10:55:30;;;;;;;;;11.50;11.00;;;;;19.70;38.17;102345.06;4937867;29;8877;-70
2021/10/31 10:58:26;;;;;;;;;13.00;13.00;;;;;19.94;37.92;102347.00;4937738;29;8870;-70
2021/10/31 11:01:22;;;;;;;;;13.25;13.25;;;;;20.09;37.44;102343.47;4937527;29;8854;-71
2021/10/31 11:04:31;;;;;;;;;18.75;17.50;;;;;20.14;37.12;102343.19;4937294;29;8851;-71
2021/10/31 11:07:40;;;;;;;;;12.50;12.50;;;;;20.08;37.26;102339.00;4937588;29;8977;-71
2021/10/31 11:10:36;;;;;;;;;51.33;42.00;;;;;20.21;37.09;102339.78;4937549;29;8858;-71
2021/10/31 11:13:18;;;;;;;;;15.25;15.25;;;;;20.05;37.36;102324.84;4938397;29;9216;-70
2021/10/31 11:16:14;;;;;;;;;20.00;20.00;;;;;19.96;37.36;102331.44;4937436;29;8857;-70
2021/10/31 11:19:09;;;;;;;;;15.50;15.50;;;;;20.06;36.95;102327.31;4936035;29;8922;-70
2021/10/31 11:22:05;;;;;;;;;9.00;9.00;;;;;19.93;37.26;102320.91;4937206;29;8881;-71
2021/10/31 11:25:02;;;;;;;;;15.25;15.25;;;;;20.00;37.25;102331.53;4937102;29;8941;-71
2021/10/31 11:28:00;;;;;;;;;9.75;9.75;;;;;19.66;37.72;102327.28;4937190;29;8869;-71
2021/10/31 11:30:57;;;;;;;;;10.00;10.00;;;;;19.47;37.50;102316.63;4924215;29;8850;-71
2021/10/31 11:33:53;;;;;;;;;16.25;15.25;;;;;19.50;37.25;102321.56;4936922;29;9738;-70
2021/10/31 11:36:49;;;;;;;;;40.75;36.25;;;;;19.80;36.91;102318.50;4936944;29;8868;-71
2021/10/31 11:39:47;;;;;;;;;15.00;15.00;;;;;19.90;37.08;102313.19;4937035;29;8855;-71
2021/10/31 11:42:45;;;;;;;;;8.00;8.00;;;;;20.17;37.05;102310.78;4936842;29;8830;-71
2021/10/31 11:45:44;;;;;;;;;17.00;17.00;;;;;19.68;36.99;102306.13;4936868;29;8949;-70
2021/10/31 11:48:39;;;;;;;;;25.75;24.25;;;;;19.88;36.94;102303.50;4936736;29;8885;-70
2021/10/31 11:51:44;;;;;;;;;29.00;29.00;;;;;19.94;37.15;102296.47;4924532;29;9723;-71
2021/10/31 11:54:39;;;;;;;;;10.00;10.00;;;;;20.44;36.42;102304.34;4936591;29;8870;-71
2021/10/31 11:57:39;;;;;;;;;12.50;12.50;;;;;20.48;35.98;102310.88;4936053;29;8871;-71
2021/10/31 12:00:49;;;;;;;;;13.75;13.75;;;;;20.50;35.93;102300.09;4915108;29;8839;-72
2021/10/31 12:03:32;;;;;;;;;12.00;12.00;;;;;20.51;36.23;102298.09;4920668;29;8894;-71
2021/10/31 12:06:28;;;;;;;;;19.25;19.25;;;;;20.13;36.88;102299.44;4917569;29;8867;-71
2021/10/31 12:09:05;;;;;;;;;27.50;26.50;;;;;20.05;36.84;102293.97;4919768;29;8871;-71
2021/10/31 12:11:47;;;;;;;;;18.00;15.75;;;;;19.89;37.00;102291.09;4935464;29;8843;-71
2021/10/31 12:14:42;;;;;;;;;13.25;13.25;;;;;20.18;36.74;102292.75;4936365;29;8842;-71
2021/10/31 12:17:10;;;;;;;;;14.25;14.25;;;;;20.29;36.83;102288.22;4935950;29;8866;-72
2021/10/31 12:19:40;;;;;;;;;15.75;15.75;;;;;19.97;36.65;102288.13;4936357;29;8851;-73
2021/10/31 12:22:31;;;;;;;;;24.75;21.50;;;;;19.99;36.71;102282.16;4936067;29;8863;-72
2021/10/31 12:25:07;;;;;;;;;15.25;15.25;;;;;19.90;36.95;102276.69;4911234;29;8921;-70
2021/10/31 12:28:02;;;;;;;;;19.75;19.00;;;;;19.33;37.82;102283.34;4937050;29;9576;-72
2021/10/31 12:30:48;;;;;;;;;16.50;16.25;;;;;19.58;38.00;102274.94;4922292;29;8850;-71
2021/10/31 12:33:24;;;;;;;;;12.75;12.25;;;;;19.43;37.92;102273.63;4936925;29;8859;-71
2021/10/31 12:35:56;;;;;;;;;8.25;8.25;;;;;19.14;38.51;102264.31;4935790;29;8929;-70
2021/10/31 12:38:24;;;;;;;;;15.00;14.50;;;;;19.11;38.83;102264.22;4935945;29;8902;-70
2021/10/31 12:41:11;;;;;;;;;14.25;13.25;;;;;18.83;39.02;102264.88;4918435;29;8859;-70
2021/10/31 12:43:52;;;;;;;;;13.00;13.00;;;;;19.17;38.36;102260.81;4929641;29;8877;-70
2021/10/31 12:46:29;;;;;;;;;10.75;10.75;;;;;19.00;38.55;102266.66;4935814;29;8889;-70
2021/10/31 12:49:02;;;;;;;;;13.75;13.75;;;;;19.17;38.44;102271.22;4935483;29;8862;-70
2021/10/31 12:51:53;;;;;;;;;15.00;14.25;;;;;19.11;38.87;102253.81;4933439;29;8874;-70
2021/10/31 12:54:36;;;;;;;;;19.50;19.50;;;;;18.85;38.92;102253.31;4934848;29;8866;-70
2021/10/31 12:57:09;;;;;;;;;16.75;16.75;;;;;19.29;38.22;102259.16;4914462;29;8863;-70
2021/10/31 12:59:49;;;;;;;;;20.50;20.50;;;;;19.40;38.00;102257.53;4930131;29;8930;-70
2021/10/31 13:02:53;;;;;;;;;17.75;17.75;;;;;19.44;38.11;102258.44;4926598;29;8896;-70
2021/10/31 13:05:49;;;;;;;;;17.00;16.00;;;;;19.45;38.12;102255.28;4932769;29;8854;-70
2021/10/31 13:08:56;;;;;;;;;16.50;14.50;;;;;19.27;37.87;102253.91;4933941;29;8886;-70
2021/10/31 13:11:54;;;;;;;;;13.50;13.00;;;;;19.33;38.01;102244.09;4920033;29;9635;-70
2021/10/31 13:14:49;;;;;;;;;12.75;12.75;;;;;19.32;37.56;102244.41;4932168;29;8855;-71